createdAt,value
2023-07-19T00:00:07.619Z,16.32
2023-07-19T00:02:35.033Z,16.34
2023-07-19T00:05:03.510Z,16.38
2023-07-19T00:07:31.797Z,16.29
2023-07-19T00:10:00.243Z,16.20
2023-07-19T00:12:30.057Z,16.05
2023-07-19T00:15:05.918Z,16.01
2023-07-19T00:17:33.566Z,16.05
2023-07-19T00:20:01.081Z,15.90
2023-07-19T00:22:28.598Z,15.92
2023-07-19T00:24:55.948Z,15.89
2023-07-19T00:27:24.463Z,15.30
2023-07-19T00:29:52.024Z,14.87
2023-07-19T00:32:19.311Z,14.61
2023-07-19T00:34:52.817Z,14.56
2023-07-19T00:37:20.353Z,14.65
2023-07-19T00:39:48.796Z,14.99
2023-07-19T00:42:16.340Z,15.11
2023-07-19T00:44:43.942Z,14.96
2023-07-19T00:47:12.622Z,14.98
2023-07-19T00:49:41.887Z,15.11
2023-07-19T00:52:10.246Z,15.29
2023-07-19T00:54:38.201Z,15.34
2023-07-19T00:57:06.901Z,15.31
2023-07-19T00:59:34.892Z,15.27
2023-07-19T01:02:03.236Z,15.21
2023-07-19T01:04:31.254Z,15.23
2023-07-19T01:07:00.609Z,15.18
2023-07-19T01:09:28.147Z,14.88
2023-07-19T01:11:55.243Z,14.72
2023-07-19T01:14:23.278Z,14.76
2023-07-19T01:16:50.366Z,14.89
2023-07-19T01:19:19.156Z,14.72
2023-07-19T01:21:50.061Z,14.66
2023-07-19T01:24:17.934Z,14.55
2023-07-19T01:26:45.257Z,14.14
2023-07-19T01:29:12.772Z,14.38
2023-07-19T01:31:40.453Z,14.57
2023-07-19T01:34:09.225Z,14.49
2023-07-19T01:36:36.680Z,14.38
2023-07-19T01:39:04.216Z,14.21
2023-07-19T01:41:31.635Z,14.30
2023-07-19T01:43:59.272Z,14.23
2023-07-19T01:46:29.892Z,14.33
2023-07-19T01:48:57.217Z,14.44
2023-07-19T01:51:24.633Z,14.67
2023-07-19T01:53:52.010Z,14.80
2023-07-19T01:56:19.441Z,14.92
2023-07-19T01:58:46.807Z,15.05
2023-07-19T02:01:17.101Z,15.05
2023-07-19T02:03:44.833Z,14.94
2023-07-19T02:06:12.626Z,14.92
2023-07-19T02:08:46.055Z,14.89
2023-07-19T02:11:15.392Z,14.88
2023-07-19T02:13:48.789Z,14.88
2023-07-19T02:16:16.626Z,14.86
2023-07-19T02:18:45.985Z,14.68
2023-07-19T02:21:13.478Z,14.43
2023-07-19T02:23:41.007Z,14.56
2023-07-19T02:26:09.327Z,14.64
2023-07-19T02:28:37.080Z,14.73
2023-07-19T02:31:05.069Z,14.74
2023-07-19T02:33:33.372Z,14.76
2023-07-19T02:36:01.869Z,14.66
2023-07-19T02:38:29.223Z,14.66
2023-07-19T02:41:01.114Z,14.49
2023-07-19T02:43:29.321Z,14.47
2023-07-19T02:45:57.672Z,14.23
2023-07-19T02:48:25.249Z,14.26
2023-07-19T02:50:52.787Z,14.48
2023-07-19T02:53:20.937Z,14.55
2023-07-19T02:55:48.918Z,14.49
2023-07-19T02:58:18.342Z,14.52
2023-07-19T03:00:45.409Z,14.55
2023-07-19T03:03:13.324Z,14.55
2023-07-19T03:05:45.134Z,14.50
2023-07-19T03:08:12.899Z,14.42
2023-07-19T03:10:40.876Z,14.45
2023-07-19T03:13:10.525Z,14.45
2023-07-19T03:15:38.774Z,14.39
2023-07-19T03:18:05.933Z,14.44
2023-07-19T03:20:33.302Z,14.54
2023-07-19T03:23:02.427Z,14.53
2023-07-19T03:25:32.768Z,14.59
2023-07-19T03:28:01.523Z,14.44
2023-07-19T03:30:28.758Z,14.34
2023-07-19T03:32:57.032Z,14.23
2023-07-19T03:35:26.396Z,14.29
2023-07-19T03:37:53.644Z,14.15
2023-07-19T03:40:21.060Z,14.03
2023-07-19T03:42:48.009Z,14.04
2023-07-19T03:45:15.923Z,14.02
2023-07-19T03:47:42.983Z,14.15
2023-07-19T03:50:10.485Z,14.27
2023-07-19T03:52:37.360Z,14.37
2023-07-19T03:55:07.923Z,14.56
2023-07-19T03:57:36.965Z,14.68
2023-07-19T04:00:05.408Z,14.69
2023-07-19T04:02:32.475Z,14.71
2023-07-19T04:05:00.795Z,14.57
2023-07-19T04:07:27.862Z,14.52
2023-07-19T04:09:54.809Z,14.56
2023-07-19T04:12:22.870Z,14.35
2023-07-19T04:14:50.276Z,14.31
2023-07-19T04:17:17.222Z,14.29
2023-07-19T04:19:44.346Z,14.27
2023-07-19T04:22:12.925Z,14.27
2023-07-19T04:24:39.818Z,14.34
2023-07-19T04:27:06.875Z,14.40
2023-07-19T04:29:34.292Z,14.68
2023-07-19T04:32:01.232Z,14.82
2023-07-19T04:34:30.315Z,14.90
2023-07-19T04:36:57.685Z,14.78
2023-07-19T04:39:24.665Z,14.87
2023-07-19T04:41:54.118Z,15.05
2023-07-19T04:44:21.262Z,15.28
2023-07-19T04:46:51.578Z,15.31
2023-07-19T04:49:19.860Z,15.31
2023-07-19T04:51:47.218Z,15.54
2023-07-19T04:54:22.343Z,15.74
2023-07-19T04:56:55.513Z,15.81
2023-07-19T04:59:23.060Z,15.85
2023-07-19T05:01:53.344Z,15.82
2023-07-19T05:04:22.322Z,15.87
2023-07-19T05:06:49.354Z,15.87
2023-07-19T05:09:16.270Z,15.92
2023-07-19T05:11:43.694Z,16.01
2023-07-19T05:14:10.809Z,16.08
2023-07-19T05:16:39.299Z,16.24
2023-07-19T05:19:07.537Z,16.46
2023-07-19T05:21:35.705Z,16.52
2023-07-19T05:24:03.123Z,16.57
2023-07-19T05:26:31.853Z,16.63
2023-07-19T05:28:59.097Z,16.66
2023-07-19T05:31:26.577Z,16.83
2023-07-19T05:33:53.944Z,17.06
2023-07-19T05:36:22.111Z,17.31
2023-07-19T05:38:49.482Z,17.51
2023-07-19T05:41:17.016Z,17.58
2023-07-19T05:43:45.796Z,17.73
2023-07-19T05:46:14.525Z,17.88
2023-07-19T05:48:42.004Z,18.27
2023-07-19T05:51:09.746Z,18.34
2023-07-19T05:53:36.910Z,18.44
2023-07-19T05:56:04.691Z,18.54
2023-07-19T05:58:33.404Z,18.71
2023-07-19T06:01:01.997Z,18.87
2023-07-19T06:03:29.569Z,19.11
2023-07-19T06:05:57.293Z,19.27
2023-07-19T06:08:25.880Z,19.48
2023-07-19T06:10:54.086Z,19.68
2023-07-19T06:13:22.447Z,19.90
2023-07-19T06:15:49.745Z,20.04
2023-07-19T06:18:19.586Z,20.23
2023-07-19T06:20:46.755Z,20.34
2023-07-19T06:23:14.855Z,20.33
2023-07-19T06:25:42.450Z,20.50
2023-07-19T06:28:10.029Z,20.55
2023-07-19T06:30:37.751Z,20.65
2023-07-19T06:33:06.547Z,20.61
2023-07-19T06:35:36.357Z,20.64
2023-07-19T06:38:03.873Z,20.82
2023-07-19T06:40:31.537Z,21.04
2023-07-19T06:42:58.788Z,21.20
2023-07-19T06:45:26.870Z,21.36
2023-07-19T06:47:54.672Z,21.39
2023-07-19T06:50:22.357Z,21.43
2023-07-19T06:52:51.873Z,21.50
2023-07-19T06:55:20.364Z,21.58
2023-07-19T06:57:48.054Z,21.62
2023-07-19T07:00:15.941Z,21.82
2023-07-19T07:02:43.476Z,22.02
2023-07-19T07:05:13.740Z,22.28
2023-07-19T07:07:41.430Z,22.45
2023-07-19T07:10:11.244Z,22.57
2023-07-19T07:12:38.589Z,22.79
2023-07-19T07:15:06.615Z,22.71
2023-07-19T07:17:34.566Z,22.52
2023-07-19T07:20:02.022Z,22.39
2023-07-19T07:22:29.531Z,22.40
2023-07-19T07:24:57.414Z,22.57
2023-07-19T07:27:24.905Z,22.78
2023-07-19T07:29:52.369Z,23.04
2023-07-19T07:32:19.763Z,22.95
2023-07-19T07:34:47.474Z,23.26
2023-07-19T07:37:14.661Z,23.65
2023-07-19T07:39:43.208Z,24.00
2023-07-19T07:42:10.692Z,24.28
2023-07-19T07:44:38.152Z,24.43
2023-07-19T07:47:12.163Z,24.70
2023-07-19T07:49:39.672Z,24.77
2023-07-19T07:52:07.292Z,24.89
2023-07-19T07:54:34.535Z,24.92
2023-07-19T07:57:01.979Z,25.00
2023-07-19T07:59:29.532Z,25.14
2023-07-19T08:01:56.660Z,25.27
2023-07-19T08:04:25.605Z,25.46
2023-07-19T08:06:52.817Z,25.51
2023-07-19T08:09:23.013Z,25.71
2023-07-19T08:11:51.885Z,25.86
2023-07-19T08:14:21.313Z,26.06
2023-07-19T08:16:51.896Z,26.21
2023-07-19T08:19:20.477Z,26.46
2023-07-19T08:21:48.879Z,26.66
2023-07-19T08:24:16.386Z,26.82
2023-07-19T08:26:43.810Z,26.77
2023-07-19T08:29:11.989Z,26.57
2023-07-19T08:31:39.191Z,26.70
2023-07-19T08:34:06.652Z,26.81
2023-07-19T08:36:47.347Z,27.10
2023-07-19T08:39:14.872Z,27.20
2023-07-19T08:41:42.379Z,27.43
2023-07-19T08:44:11.896Z,26.95
2023-07-19T08:46:40.123Z,26.63
2023-07-19T08:49:08.458Z,26.30
2023-07-19T08:51:38.969Z,26.28
2023-07-19T08:54:09.819Z,26.14
2023-07-19T08:56:37.677Z,26.09
2023-07-19T08:59:05.860Z,26.47
2023-07-19T09:01:33.862Z,26.77
2023-07-19T09:04:01.873Z,26.78
2023-07-19T09:06:41.169Z,27.02
2023-07-19T09:09:11.023Z,26.95
2023-07-19T09:11:43.018Z,26.88
2023-07-19T09:14:11.724Z,26.76
2023-07-19T09:16:41.802Z,26.98
2023-07-19T09:19:12.214Z,27.09
2023-07-19T09:21:46.344Z,27.32
2023-07-19T09:24:14.488Z,27.55
2023-07-19T09:26:59.817Z,27.94
2023-07-19T09:29:31.860Z,27.96
2023-07-19T09:32:04.587Z,27.32
2023-07-19T09:34:39.654Z,27.31
2023-07-19T09:37:07.425Z,27.64
2023-07-19T09:39:38.381Z,27.76
2023-07-19T09:42:10.158Z,28.06
2023-07-19T09:44:38.940Z,28.13
2023-07-19T09:47:22.581Z,27.87
2023-07-19T09:49:55.690Z,28.43
2023-07-19T09:52:26.853Z,28.39
2023-07-19T09:54:55.367Z,27.89
2023-07-19T09:57:28.936Z,27.79
2023-07-19T09:59:56.306Z,27.83
2023-07-19T10:02:23.912Z,27.73
2023-07-19T10:04:54.213Z,28.39
2023-07-19T10:07:23.664Z,28.34
2023-07-19T10:09:53.401Z,28.47
2023-07-19T10:12:20.548Z,28.63
2023-07-19T10:14:57.437Z,28.84
2023-07-19T10:17:26.270Z,28.67
2023-07-19T10:20:07.581Z,29.06
2023-07-19T10:23:00.361Z,29.58
2023-07-19T10:25:32.788Z,29.94
2023-07-19T10:28:02.921Z,30.16
2023-07-19T10:30:45.665Z,30.60
2023-07-19T10:33:15.165Z,30.60
2023-07-19T10:35:43.753Z,30.82
2023-07-19T10:38:15.658Z,31.24
2023-07-19T10:40:50.085Z,31.56
2023-07-19T10:43:22.494Z,31.07
2023-07-19T10:46:01.533Z,30.07
2023-07-19T10:48:31.148Z,29.78
2023-07-19T10:51:04.980Z,29.80
2023-07-19T10:53:42.435Z,30.43
2023-07-19T10:56:12.578Z,31.16
2023-07-19T10:58:40.008Z,31.41
2023-07-19T11:01:14.068Z,31.17
2023-07-19T11:03:45.792Z,31.18
2023-07-19T11:06:13.514Z,31.66
2023-07-19T11:08:40.988Z,31.47
2023-07-19T11:11:14.234Z,31.13
2023-07-19T11:13:41.972Z,30.72
2023-07-19T11:16:09.502Z,30.97
2023-07-19T11:18:41.113Z,31.00
2023-07-19T11:21:09.024Z,30.70
2023-07-19T11:23:43.322Z,30.01
2023-07-19T11:26:16.838Z,30.36
2023-07-19T11:28:55.054Z,30.96
2023-07-19T11:31:41.923Z,31.40
2023-07-19T11:34:18.024Z,31.86
2023-07-19T11:36:47.813Z,32.64
2023-07-19T11:39:26.579Z,33.44
2023-07-19T11:41:54.876Z,34.28
2023-07-19T11:44:25.728Z,34.13
2023-07-19T11:46:53.779Z,33.38
2023-07-19T11:49:21.490Z,33.16
2023-07-19T11:51:48.894Z,32.31
2023-07-19T11:54:16.824Z,32.67
2023-07-19T11:56:44.320Z,31.59
2023-07-19T11:59:12.642Z,32.25
2023-07-19T12:01:41.208Z,32.62
2023-07-19T12:04:12.310Z,32.77
2023-07-19T12:06:39.719Z,32.71
2023-07-19T12:09:07.084Z,33.31
2023-07-19T12:11:34.539Z,33.68
2023-07-19T12:14:02.737Z,33.51
2023-07-19T12:16:31.060Z,33.64
2023-07-19T12:18:59.468Z,32.83
2023-07-19T12:21:28.355Z,31.41
2023-07-19T12:23:59.629Z,31.56
2023-07-19T12:28:58.655Z,30.52
2023-07-19T12:31:27.114Z,30.98
2023-07-19T12:33:54.502Z,31.27
2023-07-19T12:36:23.613Z,31.49
2023-07-19T12:38:50.921Z,30.95
2023-07-19T12:41:18.554Z,31.58
2023-07-19T12:43:46.256Z,32.32
2023-07-19T12:46:14.077Z,32.95
2023-07-19T12:48:42.201Z,33.48
2023-07-19T12:51:10.047Z,33.68
2023-07-19T12:53:39.257Z,33.76
2023-07-19T12:56:08.328Z,33.00
2023-07-19T12:58:36.847Z,33.54
2023-07-19T13:01:04.385Z,33.86
2023-07-19T13:03:33.050Z,34.10
2023-07-19T13:06:00.783Z,33.18
2023-07-19T13:08:29.381Z,33.07
2023-07-19T13:10:59.554Z,33.15
2023-07-19T13:13:26.805Z,33.14
2023-07-19T13:15:55.089Z,33.94
2023-07-19T13:18:22.452Z,34.99
2023-07-19T13:20:50.078Z,35.36
2023-07-19T13:23:18.661Z,34.28
2023-07-19T13:25:47.067Z,33.44
2023-07-19T13:28:14.515Z,33.28
2023-07-19T13:30:42.333Z,33.31
2023-07-19T13:33:11.898Z,33.87
2023-07-19T13:38:11.579Z,34.67
2023-07-19T13:40:39.937Z,34.69
2023-07-19T13:43:11.246Z,34.00
2023-07-19T13:45:41.757Z,33.21
2023-07-19T13:48:09.773Z,32.85
2023-07-19T13:50:38.137Z,33.63
2023-07-19T13:53:06.491Z,33.88
2023-07-19T13:55:35.745Z,32.98
2023-07-19T13:58:05.524Z,33.41
2023-07-19T14:00:39.382Z,33.60
2023-07-19T14:03:06.723Z,34.06
2023-07-19T14:05:33.982Z,34.16
2023-07-19T14:08:02.762Z,32.90
2023-07-19T14:10:30.062Z,32.07
2023-07-19T14:13:00.260Z,31.78
2023-07-19T14:15:34.172Z,31.51
2023-07-19T14:18:01.570Z,31.65
2023-07-19T14:20:28.964Z,32.20
2023-07-19T14:22:57.494Z,32.41
2023-07-19T14:25:24.992Z,32.43
2023-07-19T14:27:52.412Z,32.76
2023-07-19T14:30:20.911Z,33.06
2023-07-19T14:32:49.306Z,33.41
2023-07-19T14:35:16.891Z,33.39
2023-07-19T14:37:45.943Z,32.59
2023-07-19T14:40:17.056Z,32.33
2023-07-19T14:42:44.348Z,32.17
2023-07-19T14:45:13.817Z,32.46
2023-07-19T14:47:41.690Z,32.64
2023-07-19T14:50:18.123Z,32.73
2023-07-19T14:52:51.618Z,32.22
2023-07-19T14:55:20.128Z,32.14
2023-07-19T14:57:47.689Z,32.74
2023-07-19T15:00:15.485Z,33.67
2023-07-19T15:02:43.177Z,34.09
2023-07-19T15:05:10.992Z,34.16
2023-07-19T15:07:39.752Z,33.86
2023-07-19T15:10:08.028Z,33.48
2023-07-19T15:12:35.369Z,33.59
2023-07-19T15:15:03.243Z,34.09
2023-07-19T15:17:31.848Z,34.46
2023-07-19T15:20:00.450Z,34.93
2023-07-19T15:22:27.966Z,34.95
2023-07-19T15:24:56.435Z,35.18
2023-07-19T15:27:24.898Z,34.99
2023-07-19T15:29:53.276Z,34.78
2023-07-19T15:32:20.873Z,34.65
2023-07-19T15:34:48.193Z,34.04
2023-07-19T15:37:15.690Z,33.87
2023-07-19T15:39:43.501Z,33.43
2023-07-19T15:42:11.240Z,33.82
2023-07-19T15:44:38.548Z,34.07
2023-07-19T15:47:06.458Z,34.19
2023-07-19T15:49:34.443Z,34.26
2023-07-19T15:52:03.711Z,34.10
2023-07-19T15:54:31.149Z,33.64
2023-07-19T15:56:58.267Z,33.25
2023-07-19T15:59:25.826Z,33.05
2023-07-19T16:01:55.030Z,32.88
2023-07-19T16:04:25.998Z,32.51
2023-07-19T16:06:53.329Z,32.41
2023-07-19T16:09:20.841Z,32.81
2023-07-19T16:11:49.404Z,32.74
2023-07-19T16:14:23.041Z,32.61
2023-07-19T16:16:50.352Z,32.59
2023-07-19T16:19:18.722Z,32.53
2023-07-19T16:21:45.967Z,32.38
2023-07-19T16:24:14.196Z,31.81
2023-07-19T16:26:41.627Z,31.50
2023-07-19T16:29:09.299Z,31.52
2023-07-19T16:31:36.794Z,31.50
2023-07-19T16:34:04.179Z,31.68
2023-07-19T16:36:31.523Z,31.39
2023-07-19T16:38:59.053Z,31.08
2023-07-19T16:41:28.444Z,30.96
2023-07-19T16:43:56.044Z,31.15
2023-07-19T16:46:23.358Z,31.27
2023-07-19T16:48:50.874Z,31.38
2023-07-19T16:51:18.484Z,31.32
2023-07-19T16:53:45.833Z,31.21
2023-07-19T16:56:13.214Z,30.82
2023-07-19T16:58:41.829Z,30.58
2023-07-19T17:01:11.310Z,30.48
2023-07-19T17:03:41.524Z,30.12
2023-07-19T17:06:08.846Z,29.80
2023-07-19T17:08:36.231Z,29.91
2023-07-19T17:11:04.730Z,29.71
2023-07-19T17:13:38.387Z,29.87
2023-07-19T17:16:13.554Z,29.68
2023-07-19T17:18:43.812Z,29.63
2023-07-19T17:21:14.558Z,29.39
2023-07-19T17:23:41.851Z,29.36
2023-07-19T17:26:09.404Z,29.39
2023-07-19T17:28:37.974Z,29.41
2023-07-19T17:31:05.930Z,29.41
2023-07-19T17:33:34.163Z,29.44
2023-07-19T17:36:02.068Z,29.45
2023-07-19T17:38:30.065Z,29.24
2023-07-19T17:40:57.322Z,28.94
2023-07-19T17:43:26.950Z,28.81
2023-07-19T17:45:56.558Z,28.73
2023-07-19T17:48:24.533Z,28.62
2023-07-19T17:50:52.218Z,28.54
2023-07-19T17:53:20.104Z,28.45
2023-07-19T17:55:48.901Z,28.10
2023-07-19T17:58:16.621Z,27.96
2023-07-19T18:00:44.313Z,28.04
2023-07-19T18:03:11.819Z,28.11
2023-07-19T18:05:40.051Z,27.71
2023-07-19T18:08:20.743Z,27.74
2023-07-19T18:10:50.717Z,27.56
2023-07-19T18:13:18.402Z,27.55
2023-07-19T18:15:47.363Z,27.30
2023-07-19T18:18:15.860Z,26.91
2023-07-19T18:20:44.263Z,26.82
2023-07-19T18:23:12.010Z,26.64
2023-07-19T18:25:40.896Z,26.67
2023-07-19T18:28:09.263Z,26.47
2023-07-19T18:30:39.419Z,26.39
2023-07-19T18:33:07.668Z,26.18
2023-07-19T18:35:43.743Z,25.95
2023-07-19T18:38:11.580Z,26.07
2023-07-19T18:40:40.342Z,25.85
2023-07-19T18:43:07.646Z,25.72
2023-07-19T18:45:35.297Z,25.44
2023-07-19T18:48:03.133Z,25.30
2023-07-19T18:50:37.054Z,25.32
2023-07-19T18:53:05.074Z,25.14
2023-07-19T18:55:33.062Z,25.04
2023-07-19T18:58:01.107Z,24.99
2023-07-19T19:00:30.315Z,24.70
2023-07-19T19:02:57.952Z,24.70
2023-07-19T19:05:25.747Z,24.40
2023-07-19T19:08:00.220Z,23.97
2023-07-19T19:10:27.720Z,23.78
2023-07-19T19:12:55.308Z,24.25
2023-07-19T19:15:23.642Z,24.17
2023-07-19T19:17:51.735Z,23.88
2023-07-19T19:20:21.865Z,23.43
2023-07-19T19:22:51.207Z,23.04
2023-07-19T19:25:20.171Z,23.10
2023-07-19T19:27:49.922Z,22.76
2023-07-19T19:30:19.114Z,22.67
2023-07-19T19:32:48.837Z,22.83
2023-07-19T19:35:17.503Z,22.82
2023-07-19T19:37:50.998Z,23.01
2023-07-19T19:40:21.016Z,23.05
2023-07-19T19:42:51.871Z,23.07
2023-07-19T19:45:20.074Z,23.21
2023-07-19T19:47:48.324Z,22.66
2023-07-19T19:50:16.866Z,22.51
2023-07-19T19:52:55.343Z,22.56
2023-07-19T19:55:49.100Z,22.54
2023-07-19T19:58:18.229Z,22.71
2023-07-19T20:00:47.291Z,22.71
2023-07-19T20:08:17.262Z,22.41
2023-07-19T20:10:59.052Z,22.47
2023-07-19T20:13:27.989Z,22.44
2023-07-19T20:16:06.300Z,22.44
2023-07-19T20:21:05.057Z,22.40
2023-07-19T20:23:33.098Z,22.36
2023-07-19T20:26:12.081Z,22.24
2023-07-19T20:28:42.179Z,22.00
2023-07-19T20:31:11.201Z,21.94
2023-07-19T20:33:41.974Z,21.83
2023-07-19T20:36:45.624Z,22.04
2023-07-19T20:38:59.979Z,22.35
2023-07-19T20:43:58.209Z,21.97
2023-07-19T20:46:26.166Z,21.75
2023-07-19T20:48:58.412Z,21.59
2023-07-19T20:51:34.322Z,21.12
2023-07-19T20:54:02.298Z,20.90
2023-07-19T20:56:30.078Z,21.28
2023-07-19T20:59:06.237Z,21.16
2023-07-19T21:01:35.527Z,21.32
2023-07-19T21:04:04.204Z,21.30
2023-07-19T21:06:32.541Z,21.34
2023-07-19T21:09:00.536Z,21.17
2023-07-19T21:11:28.292Z,20.91
2023-07-19T21:13:56.009Z,20.67
2023-07-19T21:16:25.454Z,20.59
2023-07-19T21:19:00.189Z,20.61
2023-07-19T21:21:28.585Z,20.61
2023-07-19T21:23:56.269Z,20.57
2023-07-19T21:26:26.023Z,20.65
2023-07-19T21:28:54.460Z,20.61
2023-07-19T21:31:27.500Z,20.80
2023-07-19T21:33:56.355Z,20.84
2023-07-19T21:36:24.153Z,20.64
2023-07-19T21:38:52.258Z,20.60
2023-07-19T21:41:20.790Z,20.58
2023-07-19T21:43:54.594Z,20.47
2023-07-19T21:46:22.539Z,20.52
2023-07-19T21:48:50.640Z,20.56
2023-07-19T21:51:17.951Z,20.52
2023-07-19T21:53:45.471Z,20.68
2023-07-19T21:56:12.908Z,20.50
2023-07-19T21:58:40.389Z,20.03
2023-07-19T22:01:09.957Z,19.67
2023-07-19T22:03:38.427Z,19.34
2023-07-19T22:06:06.489Z,19.17
2023-07-19T22:08:36.512Z,19.07
2023-07-19T22:11:06.960Z,18.94
2023-07-19T22:13:34.379Z,18.84
2023-07-19T22:16:03.870Z,18.87
2023-07-19T22:18:31.956Z,18.74
2023-07-19T22:21:15.589Z,18.63
2023-07-19T22:23:48.995Z,18.55
2023-07-19T22:26:22.765Z,18.55
2023-07-19T22:29:08.276Z,18.70
2023-07-19T22:31:36.055Z,18.86
2023-07-19T22:34:04.848Z,18.76
2023-07-19T22:36:32.303Z,18.70
2023-07-19T22:39:00.710Z,18.80
2023-07-19T22:41:33.916Z,18.49
2023-07-19T22:44:01.311Z,18.39
2023-07-19T22:46:31.678Z,18.39
2023-07-19T22:48:59.155Z,18.57
2023-07-19T22:51:26.354Z,18.80
2023-07-19T22:53:53.558Z,18.85
2023-07-19T22:56:20.939Z,18.72
2023-07-19T22:58:54.727Z,18.78
2023-07-19T23:01:22.292Z,18.99
2023-07-19T23:03:50.555Z,18.63
2023-07-19T23:06:18.229Z,18.46
2023-07-19T23:08:45.640Z,18.33
2023-07-19T23:11:13.052Z,18.24
2023-07-19T23:13:40.768Z,18.42
2023-07-19T23:16:08.005Z,18.42
2023-07-19T23:18:35.436Z,18.43
2023-07-19T23:21:03.125Z,18.58
2023-07-19T23:23:30.413Z,18.62
2023-07-19T23:25:57.915Z,18.29
2023-07-19T23:28:25.309Z,18.36
2023-07-19T23:30:54.783Z,18.22
2023-07-19T23:33:22.323Z,18.31
2023-07-19T23:35:52.235Z,18.34
2023-07-19T23:38:19.767Z,18.60
2023-07-19T23:40:47.758Z,18.91
2023-07-19T23:43:15.903Z,19.09
2023-07-19T23:45:43.203Z,19.16
2023-07-19T23:48:10.558Z,19.22
2023-07-19T23:50:44.567Z,19.38
2023-07-19T23:53:12.143Z,19.38
2023-07-19T23:55:45.757Z,19.52
2023-07-19T23:58:15.515Z,19.39
